KAND/AND METAR and TAF weather

Enter ICAO airport designator
Station Type Date Time Source
KAND METAR 2020/07/09 22:56 UTC NOAA

KAND 092256Z AUTO 33009KT 10SM CLR 26/19 A2991 RMK AO2 SLP118 T02560194


Station Type Date Time Source
KAND Decoded METAR 2020/07/09 22:56 UTC NOAA

ANDERSON COUNTY AIRPORT, SC, United States (KAND) 34-30N 82-43W 239M
Jul 09, 2020 - 06:56 PM EDT / 2020.07.09 2256 UTC
Wind: from the NNW (330 degrees) at 10 MPH (9 KT):0
Visibility: 10 mile(s):0
Sky conditions: clear
Temperature: 78.1 F (25.6 C)
Dew Point: 66.9 F (19.4 C)
Relative Humidity: 68%
Pressure (altimeter): 29.91 in. Hg (1012 hPa)
ob: KAND 092256Z AUTO 33009KT 10SM CLR 26/19 A2991 RMK AO2 SLP118 T02560194
cycle: 23

Station Type Date Time Source
KAND TAF 2020/07/09 20:51 UTC NOAA

TAF
AMD KAND 091949Z 0920/1018 12006KT P6SM VCTS SCT040CB
FM100000 VRB03KT P6SM FEW040 FEW250
FM100900 VRB02KT 5SM BR FEW250
FM101200 24005KT P6SM FEW250

Example: see airport list